Aviation Digital Data Service (ADDS)

Output produced by METARs form (0641 UTC 24 March 2019)
found at http://www.aviationweather.gov/metar/data/
 
KVJI 240635Z AUTO 09007KT 10SM CLR 02/M09 A3026 RMK AO2 T00221089
KBCB 240635Z AUTO 00000KT 10SM CLR 00/M08 A3030 RMK AO2 T10031081
KBCB 240520Z 2406/2506 VRB04KT P6SM SKC 
     FM241900 23007KT P6SM BKN150 
     FM250000 VRB03KT P6SM BKN100
       
KBKT 240635Z AUTO 00000KT 10SM CLR 01/M05 A3028 RMK AO1 T00111053
K0V4 240635Z AUTO 10SM CLR 00/M05 A3028 RMK AO1 T10041046
KCHO 240553Z AUTO 00000KT 10SM CLR 08/M10 A3026 RMK AO2 SLP245 T00781100 10111 20044 51002
KCHO 240523Z 2406/2506 VRB03KT P6SM SKC 
     FM241500 20010G17KT P6SM FEW130 SCT250 
     FM250000 20004KT P6SM BKN150 BKN250
       
KCXE 240635Z AUTO 00000KT 10SM CLR 00/M04 A3029 RMK AO1 T10011037
KW63 240635Z AUTO 19003KT 10SM CLR 00/00 A3029 RMK AO1
KW81 240615Z AUTO 00000KT 5SM CLR M02/M03 A3028 RMK AO1 T10221028
KCJR 240635Z AUTO 00000KT 10SM CLR M01/M05 A3028 RMK AO2 T10111051
KDAN 240553Z AUTO 00000KT 10SM CLR 00/M04 A3029 RMK AO2 SLP254 T00001044 10122 20000 53004
KDAN 240520Z 2406/2506 21004KT P6SM SKC 
     FM241900 22010G18KT P6SM FEW150 
     FM250000 22006KT P6SM BKN150
       
KPSK 240615Z AUTO 00000KT 10SM CLR 01/M07 A3029 RMK AO2 T00061069
KEMV 240615Z AUTO 00000KT 10SM CLR 00/M02 A3031 RMK AO2 T00001018
KFVX 240635Z AUTO 00000KT 10SM CLR M01/M04 A3027 RMK AO2 T10111036
KFKN 240635Z AUTO 00000KT 10SM CLR M02/M02 A3031 RMK AO2 T10161020
KEZF 240635Z AUTO 00000KT 10SM CLR 00/M03 A3027 RMK AO2 T00001030
KFRR 240635Z AUTO 12003KT 10SM CLR 04/M07 A3025 RMK AO1
KHLX 240635Z AUTO 20004KT 10SM CLR 03/M12 A3026 RMK AO2 T00341120
KHSP 240635Z AUTO 28011KT 10SM CLR 03/M10 A3023 RMK AO2 T00271100
K0VG 240635Z AUTO 00000KT 10SM CLR M00/M03 A3028 RMK AO2
KW31 240635Z AUTO 00000KT 10SM CLR 00/M05 A3028 RMK AO1 T00011047
KLVL 240615Z AUTO 00000KT 10SM CLR 01/M03 A3028 RMK AO1 T00071028
KJYO 240615Z AUTO 00000KT 10SM CLR 03/M04 A3027 RMK AO2
KLKU 240615Z AUTO 00000KT 10SM CLR M02/M06 A3031 RMK AO2 T10211063
KLUA 240635Z AUTO 16004KT 10SM CLR M01/M03 A3026 RMK AO2
KLYH 240554Z AUTO 34005KT 10SM CLR 03/M07 A3026 RMK AO2 SLP247 T00331072 10106 21011 58006
KLYH 240520Z 2406/2506 00000KT P6SM SKC 
     FM241800 21009G17KT P6SM SCT150 
     FM242300 21006KT P6SM BKN100
       
KHEF 240556Z AUTO 00000KT 10SM CLR M02/M04 A3028 RMK AO2 SLP265 6//// T10171039 10083 21028 53002 FZRANO PNO $
KMKJ 240615Z AUTO 00000KT 10SM CLR M01/M05 A3030 RMK AO2 T10091053
KMTV 240610Z AUTO 00000KT 10SM CLR M01/M05 A3032 RMK AO2 T10151052
KMFV 240635Z AUTO 30006KT 10SM CLR 04/M01 A3028 RMK AO2 T00441010
KCPK 240635Z AUTO 00000KT 7SM CLR 00/M02 A3031 RMK AO2 T10021021
KPVG 240556Z AUTO 00000KT 10SM CLR M04/M05 A3031 RMK AO2 SLP265 T10391050 10067 21039 53007 FZRANO
KORF 240551Z 21004KT 10SM CLR 03/00 A3029 RMK AO2 SLP256 T00280000 10122 20022 51007
KORF 240530Z 2406/2506 VRB03KT P6SM SKC 
     FM241500 20006KT P6SM SKC 
     FM241800 21011KT P6SM SCT250 
     FM250000 20007KT P6SM SCT200
       
KOMH 240635Z AUTO 00000KT 10SM CLR M01/M04 A3026 RMK AO2
KPTB 240635Z AUTO 00000KT 10SM CLR M02/M04 A3031 RMK AO2 T10251040
KW96 240635Z AUTO 00000KT 10SM CLR 00/M03 A3029 RMK AO1 T10051035
KJFZ 240635Z AUTO 00000KT 10SM CLR 01/M11 A3026 RMK AO2 T00061107
KFCI 240556Z AUTO 00000KT 10SM CLR M01/M04 A3030 RMK AO2 SLP279 T10061039 10089 21017 53006 FZRANO
KOFP 240554Z AUTO 00000KT 10SM CLR M01/M04 A3030 RMK AO2 SLP260 T10061044 10106 21006 53005
KRIC 240554Z 00000KT 10SM CLR 02/M04 A3029 RMK AO2 SLP262 T00221044 10111 20006 53007
KRIC 240530Z 2406/2506 VRB02KT P6SM SKC 
     FM241500 19006KT P6SM SCT200 
     FM241800 21010G18KT P6SM FEW200 
     FM250000 19005KT P6SM SCT150
       
KROA 240554Z 00000KT 10SM CLR 06/M11 A3029 RMK AO2 SLP258 T00561106 10117 20039 55006
KROA 240520Z 2406/2506 35005KT P6SM SKC 
     FM242000 21008KT P6SM BKN150 
     FM250100 24004KT P6SM BKN100
       
KW78 240635Z AUTO 00000KT 10SM CLR 00/M03 A3030 RMK AO1 T10021027
KAVC 240635Z AUTO 00000KT 10SM CLR M02/M03 A3035 RMK AO2 T10191026
KRMN 240615Z AUTO 32005KT 10SM CLR M02/M07 A3032 RMK AO2 T10191072
KSHD 240615Z AUTO 28003KT 10SM CLR M02/M06 A3029 RMK AO2 T10231061
KSFQ 240615Z AUTO 00000KT 10SM CLR 00/M02 A3031 RMK AO2 T00011023
KTGI 240637Z AUTO 26003KT 10SM CLR 07/03 A3027 RMK AO1
KXSA 240615Z AUTO 00000KT 10SM CLR M01/M04 A3029 RMK AO2 T10151039
KAKQ 240554Z AUTO 00000KT 10SM CLR 00/M03 A3030 RMK AO2 SLP261 T00001028 10117 20000 53006
KHWY 240635Z AUTO 00000KT 10SM CLR M02/M05 A3027 RMK AO2 T10231054
KDCA 240552Z 00000KT 10SM CLR 07/M07 A3026 RMK AO2 SLP247 T00671072 10111 20033 53001 $
KDCA 240523Z 2406/2512 VRB03KT P6SM SKC 
     FM241500 21009KT P6SM FEW130 SCT250 
     FM250300 VRB04KT P6SM BKN150 OVC250
       
KIAD 240552Z 31005KT 10SM CLR 01/M07 A3025 RMK AO2 SLP246 T00111067 10083 20006 55001
KIAD 240523Z 2406/2512 VRB03KT P6SM SKC 
     FM241500 21008KT P6SM FEW150 SCT250 
     FM250300 VRB03KT P6SM BKN090 OVC250
       
KFYJ 240635Z AUTO 00000KT 10SM CLR M01/M03 A3031 RMK AO1 T10141026
KJGG 240635Z AUTO 00000KT 10SM CLR 02/M01 A3030 RMK AO1
KOKV 240615Z AUTO 25003KT 10SM CLR 04/M09 A3027 RMK AO2
KLNP 240635Z AUTO 16003KT 10SM CLR 04/M09 A3026 RMK AO2